sensor_id;sensor_type;location;lat;lon;timestamp;P1;durP1;ratioP1;P2;durP2;ratioP2
69779;SDS011;57052;55.602;38.096;2023-05-20T00:01:26;3.35;;;1.70;;
69779;SDS011;57052;55.602;38.096;2023-05-20T00:03:52;3.70;;;1.83;;
69779;SDS011;57052;55.602;38.096;2023-05-20T00:06:17;3.67;;;1.73;;
69779;SDS011;57052;55.602;38.096;2023-05-20T00:08:43;2.38;;;1.48;;
69779;SDS011;57052;55.602;38.096;2023-05-20T00:11:09;2.75;;;1.80;;
69779;SDS011;57052;55.602;38.096;2023-05-20T00:13:34;6.30;;;1.60;;
69779;SDS011;57052;55.602;38.096;2023-05-20T00:16:00;4.03;;;1.70;;
69779;SDS011;57052;55.602;38.096;2023-05-20T00:18:26;5.60;;;1.73;;
69779;SDS011;57052;55.602;38.096;2023-05-20T00:20:52;2.78;;;1.60;;
69779;SDS011;57052;55.602;38.096;2023-05-20T00:23:18;4.82;;;1.77;;
69779;SDS011;57052;55.602;38.096;2023-05-20T00:25:44;2.92;;;1.60;;
69779;SDS011;57052;55.602;38.096;2023-05-20T00:28:10;4.07;;;1.65;;
69779;SDS011;57052;55.602;38.096;2023-05-20T00:30:38;4.35;;;1.55;;
69779;SDS011;57052;55.602;38.096;2023-05-20T00:33:05;4.88;;;2.00;;
69779;SDS011;57052;55.602;38.096;2023-05-20T00:35:31;4.20;;;1.65;;
69779;SDS011;57052;55.602;38.096;2023-05-20T00:37:57;5.68;;;1.80;;
69779;SDS011;57052;55.602;38.096;2023-05-20T00:40:22;4.03;;;1.63;;
69779;SDS011;57052;55.602;38.096;2023-05-20T00:42:49;3.25;;;1.67;;
69779;SDS011;57052;55.602;38.096;2023-05-20T00:45:15;3.15;;;1.70;;
69779;SDS011;57052;55.602;38.096;2023-05-20T00:47:41;2.92;;;1.50;;
69779;SDS011;57052;55.602;38.096;2023-05-20T00:50:07;2.53;;;1.55;;
69779;SDS011;57052;55.602;38.096;2023-05-20T00:52:34;5.15;;;1.65;;
69779;SDS011;57052;55.602;38.096;2023-05-20T00:55:01;4.30;;;1.60;;
69779;SDS011;57052;55.602;38.096;2023-05-20T00:57:31;4.15;;;1.60;;
69779;SDS011;57052;55.602;38.096;2023-05-20T00:59:56;2.97;;;1.60;;
69779;SDS011;57052;55.602;38.096;2023-05-20T01:02:23;3.80;;;1.75;;
69779;SDS011;57052;55.602;38.096;2023-05-20T01:04:49;4.75;;;1.60;;
69779;SDS011;57052;55.602;38.096;2023-05-20T01:07:15;5.05;;;1.50;;
69779;SDS011;57052;55.602;38.096;2023-05-20T01:09:42;2.92;;;1.48;;
69779;SDS011;57052;55.602;38.096;2023-05-20T01:15:03;3.05;;;1.25;;
69779;SDS011;57052;55.602;38.096;2023-05-20T01:17:33;2.40;;;1.40;;
69779;SDS011;57052;55.602;38.096;2023-05-20T01:20:04;5.50;;;2.13;;
69779;SDS011;57052;55.602;38.096;2023-05-20T01:22:35;3.47;;;1.70;;
69779;SDS011;57052;55.602;38.096;2023-05-20T01:25:22;4.93;;;1.60;;
69779;SDS011;57052;55.602;38.096;2023-05-20T01:27:49;3.97;;;1.50;;
69779;SDS011;57052;55.602;38.096;2023-05-20T01:30:16;3.47;;;1.75;;
69779;SDS011;57052;55.602;38.096;2023-05-20T01:32:45;3.58;;;1.50;;
69779;SDS011;57052;55.602;38.096;2023-05-20T01:35:15;3.60;;;1.48;;
69779;SDS011;57052;55.602;38.096;2023-05-20T01:37:42;2.97;;;1.70;;
69779;SDS011;57052;55.602;38.096;2023-05-20T01:40:09;2.60;;;1.30;;
69779;SDS011;57052;55.602;38.096;2023-05-20T01:42:38;4.43;;;1.70;;
69779;SDS011;57052;55.602;38.096;2023-05-20T01:45:05;4.93;;;1.70;;
69779;SDS011;57052;55.602;38.096;2023-05-20T01:47:31;3.65;;;1.70;;
69779;SDS011;57052;55.602;38.096;2023-05-20T01:49:57;7.40;;;1.60;;
69779;SDS011;57052;55.602;38.096;2023-05-20T01:52:23;3.15;;;1.60;;
69779;SDS011;57052;55.602;38.096;2023-05-20T01:54:49;4.82;;;1.48;;
69779;SDS011;57052;55.602;38.096;2023-05-20T01:57:20;3.45;;;1.60;;
69779;SDS011;57052;55.602;38.096;2023-05-20T01:59:47;3.35;;;1.40;;
69779;SDS011;57052;55.602;38.096;2023-05-20T02:02:13;4.60;;;1.50;;
69779;SDS011;57052;55.602;38.096;2023-05-20T02:04:39;2.83;;;1.42;;
69779;SDS011;57052;55.602;38.096;2023-05-20T02:07:06;3.05;;;1.27;;
69779;SDS011;57052;55.602;38.096;2023-05-20T02:09:32;5.57;;;1.33;;
69779;SDS011;57052;55.602;38.096;2023-05-20T02:11:58;4.50;;;1.30;;
69779;SDS011;57052;55.602;38.096;2023-05-20T02:14:23;3.40;;;1.20;;
69779;SDS011;57052;55.602;38.096;2023-05-20T02:16:49;2.78;;;1.38;;
69779;SDS011;57052;55.602;38.096;2023-05-20T02:19:15;4.85;;;1.52;;
69779;SDS011;57052;55.602;38.096;2023-05-20T02:21:47;4.80;;;1.45;;
69779;SDS011;57052;55.602;38.096;2023-05-20T02:24:14;2.75;;;1.20;;
69779;SDS011;57052;55.602;38.096;2023-05-20T02:26:40;2.00;;;1.15;;
69779;SDS011;57052;55.602;38.096;2023-05-20T02:29:06;4.07;;;1.02;;
69779;SDS011;57052;55.602;38.096;2023-05-20T02:31:32;2.72;;;1.20;;
69779;SDS011;57052;55.602;38.096;2023-05-20T02:33:58;2.60;;;1.30;;
69779;SDS011;57052;55.602;38.096;2023-05-20T02:36:23;2.05;;;1.10;;
69779;SDS011;57052;55.602;38.096;2023-05-20T02:38:49;3.60;;;1.33;;
69779;SDS011;57052;55.602;38.096;2023-05-20T02:41:15;2.35;;;1.15;;
69779;SDS011;57052;55.602;38.096;2023-05-20T02:43:40;2.75;;;1.10;;
69779;SDS011;57052;55.602;38.096;2023-05-20T02:46:08;3.83;;;1.10;;
69779;SDS011;57052;55.602;38.096;2023-05-20T02:48:34;1.42;;;0.93;;
69779;SDS011;57052;55.602;38.096;2023-05-20T02:50:59;3.55;;;1.20;;
69779;SDS011;57052;55.602;38.096;2023-05-20T02:53:25;1.90;;;1.17;;
69779;SDS011;57052;55.602;38.096;2023-05-20T02:55:51;1.60;;;1.20;;
69779;SDS011;57052;55.602;38.096;2023-05-20T02:58:16;5.32;;;1.20;;
69779;SDS011;57052;55.602;38.096;2023-05-20T03:00:42;1.33;;;1.10;;
69779;SDS011;57052;55.602;38.096;2023-05-20T03:03:08;2.88;;;1.23;;
69779;SDS011;57052;55.602;38.096;2023-05-20T03:05:35;3.03;;;1.20;;
69779;SDS011;57052;55.602;38.096;2023-05-20T03:08:06;1.67;;;1.00;;
69779;SDS011;57052;55.602;38.096;2023-05-20T03:10:34;2.63;;;1.25;;
69779;SDS011;57052;55.602;38.096;2023-05-20T03:13:00;3.25;;;1.30;;
69779;SDS011;57052;55.602;38.096;2023-05-20T03:15:26;3.92;;;1.13;;
69779;SDS011;57052;55.602;38.096;2023-05-20T03:17:52;2.20;;;1.00;;
69779;SDS011;57052;55.602;38.096;2023-05-20T03:20:18;3.17;;;1.08;;
69779;SDS011;57052;55.602;38.096;2023-05-20T03:22:44;2.80;;;1.10;;
69779;SDS011;57052;55.602;38.096;2023-05-20T03:25:10;1.75;;;0.90;;
69779;SDS011;57052;55.602;38.096;2023-05-20T03:27:36;1.92;;;0.93;;
69779;SDS011;57052;55.602;38.096;2023-05-20T03:30:02;3.55;;;1.00;;
69779;SDS011;57052;55.602;38.096;2023-05-20T03:32:29;2.08;;;1.17;;
69779;SDS011;57052;55.602;38.096;2023-05-20T03:34:55;1.98;;;1.20;;
69779;SDS011;57052;55.602;38.096;2023-05-20T03:37:22;2.70;;;1.23;;
69779;SDS011;57052;55.602;38.096;2023-05-20T03:39:48;3.58;;;1.45;;
69779;SDS011;57052;55.602;38.096;2023-05-20T03:42:13;1.85;;;1.10;;
69779;SDS011;57052;55.602;38.096;2023-05-20T03:44:40;3.63;;;1.15;;
69779;SDS011;57052;55.602;38.096;2023-05-20T03:47:05;2.95;;;1.27;;
69779;SDS011;57052;55.602;38.096;2023-05-20T03:49:31;3.67;;;1.30;;
69779;SDS011;57052;55.602;38.096;2023-05-20T03:51:57;1.65;;;0.93;;
69779;SDS011;57052;55.602;38.096;2023-05-20T03:54:22;2.35;;;1.15;;
69779;SDS011;57052;55.602;38.096;2023-05-20T03:56:48;2.45;;;1.00;;
69779;SDS011;57052;55.602;38.096;2023-05-20T03:59:13;1.75;;;1.10;;
69779;SDS011;57052;55.602;38.096;2023-05-20T04:01:39;1.30;;;1.00;;
69779;SDS011;57052;55.602;38.096;2023-05-20T04:04:05;2.55;;;1.20;;
69779;SDS011;57052;55.602;38.096;2023-05-20T04:06:31;3.70;;;1.10;;
69779;SDS011;57052;55.602;38.096;2023-05-20T04:08:57;1.23;;;1.00;;
69779;SDS011;57052;55.602;38.096;2023-05-20T04:11:22;2.65;;;0.90;;
69779;SDS011;57052;55.602;38.096;2023-05-20T04:13:49;1.13;;;0.90;;
69779;SDS011;57052;55.602;38.096;2023-05-20T04:16:15;3.60;;;1.00;;
69779;SDS011;57052;55.602;38.096;2023-05-20T04:18:40;2.22;;;0.90;;
69779;SDS011;57052;55.602;38.096;2023-05-20T04:21:06;5.20;;;1.08;;
69779;SDS011;57052;55.602;38.096;2023-05-20T04:23:32;4.47;;;1.10;;
69779;SDS011;57052;55.602;38.096;2023-05-20T04:25:58;1.98;;;0.90;;
69779;SDS011;57052;55.602;38.096;2023-05-20T04:28:26;2.03;;;1.05;;
69779;SDS011;57052;55.602;38.096;2023-05-20T04:30:59;4.28;;;1.17;;
69779;SDS011;57052;55.602;38.096;2023-05-20T04:33:27;1.33;;;1.00;;
69779;SDS011;57052;55.602;38.096;2023-05-20T04:35:52;2.58;;;1.08;;
69779;SDS011;57052;55.602;38.096;2023-05-20T04:38:25;2.50;;;1.10;;
69779;SDS011;57052;55.602;38.096;2023-05-20T04:40:59;3.05;;;1.40;;
69779;SDS011;57052;55.602;38.096;2023-05-20T04:43:26;3.60;;;1.05;;
69779;SDS011;57052;55.602;38.096;2023-05-20T04:45:56;1.15;;;0.85;;
69779;SDS011;57052;55.602;38.096;2023-05-20T04:48:22;1.23;;;0.90;;
69779;SDS011;57052;55.602;38.096;2023-05-20T04:50:48;1.23;;;0.82;;
69779;SDS011;57052;55.602;38.096;2023-05-20T04:53:14;2.35;;;1.00;;
69779;SDS011;57052;55.602;38.096;2023-05-20T04:55:41;3.38;;;1.10;;
69779;SDS011;57052;55.602;38.096;2023-05-20T04:58:07;3.22;;;0.90;;
69779;SDS011;57052;55.602;38.096;2023-05-20T05:00:45;2.75;;;1.50;;
69779;SDS011;57052;55.602;38.096;2023-05-20T05:03:10;3.13;;;1.10;;
69779;SDS011;57052;55.602;38.096;2023-05-20T05:05:39;1.65;;;1.20;;
69779;SDS011;57052;55.602;38.096;2023-05-20T05:08:06;1.88;;;1.10;;
69779;SDS011;57052;55.602;38.096;2023-05-20T05:10:33;2.92;;;1.30;;
69779;SDS011;57052;55.602;38.096;2023-05-20T05:13:00;1.42;;;0.93;;
69779;SDS011;57052;55.602;38.096;2023-05-20T05:15:26;2.40;;;1.00;;
69779;SDS011;57052;55.602;38.096;2023-05-20T05:17:52;4.03;;;1.00;;
69779;SDS011;57052;55.602;38.096;2023-05-20T05:20:18;1.63;;;1.00;;
69779;SDS011;57052;55.602;38.096;2023-05-20T05:22:44;2.53;;;1.20;;
69779;SDS011;57052;55.602;38.096;2023-05-20T05:25:10;1.20;;;1.00;;
69779;SDS011;57052;55.602;38.096;2023-05-20T05:27:37;2.97;;;1.00;;
69779;SDS011;57052;55.602;38.096;2023-05-20T05:30:03;2.95;;;1.20;;
69779;SDS011;57052;55.602;38.096;2023-05-20T05:32:31;2.17;;;1.10;;
69779;SDS011;57052;55.602;38.096;2023-05-20T05:34:57;3.13;;;0.90;;
69779;SDS011;57052;55.602;38.096;2023-05-20T05:37:23;1.73;;;1.13;;
69779;SDS011;57052;55.602;38.096;2023-05-20T05:39:49;1.88;;;1.10;;
69779;SDS011;57052;55.602;38.096;2023-05-20T05:42:15;2.35;;;1.00;;
69779;SDS011;57052;55.602;38.096;2023-05-20T05:44:41;4.82;;;1.23;;
69779;SDS011;57052;55.602;38.096;2023-05-20T05:47:07;2.38;;;0.90;;
69779;SDS011;57052;55.602;38.096;2023-05-20T05:49:33;3.72;;;1.10;;
69779;SDS011;57052;55.602;38.096;2023-05-20T05:51:58;2.05;;;1.00;;
69779;SDS011;57052;55.602;38.096;2023-05-20T05:54:25;5.28;;;1.30;;
69779;SDS011;57052;55.602;38.096;2023-05-20T05:56:51;2.78;;;1.17;;
69779;SDS011;57052;55.602;38.096;2023-05-20T05:59:17;2.58;;;1.00;;
69779;SDS011;57052;55.602;38.096;2023-05-20T06:01:43;2.65;;;1.10;;
69779;SDS011;57052;55.602;38.096;2023-05-20T06:04:09;3.65;;;1.13;;
69779;SDS011;57052;55.602;38.096;2023-05-20T06:06:35;2.05;;;1.20;;
69779;SDS011;57052;55.602;38.096;2023-05-20T06:09:01;2.17;;;1.10;;
69779;SDS011;57052;55.602;38.096;2023-05-20T06:11:28;1.98;;;1.08;;
69779;SDS011;57052;55.602;38.096;2023-05-20T06:13:53;1.90;;;1.20;;
69779;SDS011;57052;55.602;38.096;2023-05-20T06:16:20;7.43;;;1.20;;
69779;SDS011;57052;55.602;38.096;2023-05-20T06:18:45;3.75;;;1.10;;
69779;SDS011;57052;55.602;38.096;2023-05-20T06:21:11;3.10;;;1.08;;
69779;SDS011;57052;55.602;38.096;2023-05-20T06:23:37;1.52;;;1.08;;
69779;SDS011;57052;55.602;38.096;2023-05-20T06:26:03;1.73;;;1.10;;
69779;SDS011;57052;55.602;38.096;2023-05-20T06:28:28;4.25;;;1.20;;
69779;SDS011;57052;55.602;38.096;2023-05-20T06:30:55;5.90;;;1.10;;
69779;SDS011;57052;55.602;38.096;2023-05-20T06:33:22;6.30;;;1.20;;
69779;SDS011;57052;55.602;38.096;2023-05-20T06:35:55;2.00;;;1.00;;
69779;SDS011;57052;55.602;38.096;2023-05-20T06:38:21;5.10;;;1.20;;
69779;SDS011;57052;55.602;38.096;2023-05-20T06:40:47;2.90;;;1.10;;
69779;SDS011;57052;55.602;38.096;2023-05-20T06:43:15;2.75;;;1.00;;
69779;SDS011;57052;55.602;38.096;2023-05-20T06:45:42;5.28;;;1.30;;
69779;SDS011;57052;55.602;38.096;2023-05-20T06:48:08;2.88;;;1.20;;
69779;SDS011;57052;55.602;38.096;2023-05-20T06:50:35;4.15;;;1.40;;
69779;SDS011;57052;55.602;38.096;2023-05-20T06:53:01;1.75;;;1.10;;
69779;SDS011;57052;55.602;38.096;2023-05-20T06:55:27;4.10;;;1.30;;
69779;SDS011;57052;55.602;38.096;2023-05-20T06:57:53;2.75;;;1.13;;
69779;SDS011;57052;55.602;38.096;2023-05-20T07:00:18;5.32;;;1.67;;
69779;SDS011;57052;55.602;38.096;2023-05-20T07:02:44;1.65;;;1.13;;
69779;SDS011;57052;55.602;38.096;2023-05-20T07:05:10;1.83;;;1.08;;
69779;SDS011;57052;55.602;38.096;2023-05-20T07:07:37;3.53;;;1.05;;
69779;SDS011;57052;55.602;38.096;2023-05-20T07:10:03;4.68;;;0.98;;
69779;SDS011;57052;55.602;38.096;2023-05-20T07:12:31;1.77;;;1.20;;
69779;SDS011;57052;55.602;38.096;2023-05-20T07:14:57;1.67;;;1.17;;
69779;SDS011;57052;55.602;38.096;2023-05-20T07:17:23;2.03;;;1.00;;
69779;SDS011;57052;55.602;38.096;2023-05-20T07:19:49;2.03;;;1.10;;
69779;SDS011;57052;55.602;38.096;2023-05-20T07:22:15;3.63;;;1.13;;
69779;SDS011;57052;55.602;38.096;2023-05-20T07:24:41;1.77;;;1.10;;
69779;SDS011;57052;55.602;38.096;2023-05-20T07:27:07;2.03;;;0.95;;
69779;SDS011;57052;55.602;38.096;2023-05-20T07:29:33;2.53;;;1.20;;
69779;SDS011;57052;55.602;38.096;2023-05-20T07:32:00;3.47;;;1.15;;
69779;SDS011;57052;55.602;38.096;2023-05-20T07:34:25;2.33;;;1.15;;
69779;SDS011;57052;55.602;38.096;2023-05-20T07:36:51;6.15;;;1.30;;
69779;SDS011;57052;55.602;38.096;2023-05-20T07:39:17;2.75;;;1.40;;
69779;SDS011;57052;55.602;38.096;2023-05-20T07:41:43;3.55;;;1.02;;
69779;SDS011;57052;55.602;38.096;2023-05-20T07:44:10;5.55;;;1.00;;
69779;SDS011;57052;55.602;38.096;2023-05-20T07:46:37;4.47;;;1.20;;
69779;SDS011;57052;55.602;38.096;2023-05-20T07:49:04;2.80;;;1.20;;
69779;SDS011;57052;55.602;38.096;2023-05-20T07:51:30;3.75;;;1.30;;
69779;SDS011;57052;55.602;38.096;2023-05-20T07:53:56;2.85;;;1.30;;
69779;SDS011;57052;55.602;38.096;2023-05-20T07:56:22;2.38;;;1.00;;
69779;SDS011;57052;55.602;38.096;2023-05-20T07:58:52;1.40;;;1.00;;
69779;SDS011;57052;55.602;38.096;2023-05-20T08:01:19;3.60;;;1.30;;
69779;SDS011;57052;55.602;38.096;2023-05-20T08:03:45;2.63;;;1.02;;
69779;SDS011;57052;55.602;38.096;2023-05-20T08:06:11;3.38;;;1.30;;
69779;SDS011;57052;55.602;38.096;2023-05-20T08:08:36;3.83;;;1.20;;
69779;SDS011;57052;55.602;38.096;2023-05-20T08:11:04;3.47;;;1.33;;
69779;SDS011;57052;55.602;38.096;2023-05-20T08:13:30;5.88;;;1.27;;
69779;SDS011;57052;55.602;38.096;2023-05-20T08:15:55;3.30;;;1.30;;
69779;SDS011;57052;55.602;38.096;2023-05-20T08:18:21;1.95;;;1.08;;
69779;SDS011;57052;55.602;38.096;2023-05-20T08:20:47;2.97;;;1.35;;
69779;SDS011;57052;55.602;38.096;2023-05-20T08:23:13;1.75;;;1.10;;
69779;SDS011;57052;55.602;38.096;2023-05-20T08:25:39;2.65;;;1.15;;
69779;SDS011;57052;55.602;38.096;2023-05-20T08:28:04;1.60;;;1.10;;
69779;SDS011;57052;55.602;38.096;2023-05-20T08:30:31;3.38;;;1.25;;
69779;SDS011;57052;55.602;38.096;2023-05-20T08:32:58;3.08;;;1.30;;
69779;SDS011;57052;55.602;38.096;2023-05-20T08:35:24;4.65;;;1.27;;
69779;SDS011;57052;55.602;38.096;2023-05-20T08:37:50;3.83;;;1.40;;
69779;SDS011;57052;55.602;38.096;2023-05-20T08:40:18;3.58;;;1.27;;
69779;SDS011;57052;55.602;38.096;2023-05-20T08:42:46;3.03;;;1.38;;
69779;SDS011;57052;55.602;38.096;2023-05-20T08:45:14;4.90;;;1.60;;
69779;SDS011;57052;55.602;38.096;2023-05-20T08:47:43;2.35;;;1.40;;
69779;SDS011;57052;55.602;38.096;2023-05-20T08:50:09;2.90;;;1.50;;
69779;SDS011;57052;55.602;38.096;2023-05-20T08:52:36;5.28;;;1.33;;
69779;SDS011;57052;55.602;38.096;2023-05-20T08:55:06;6.45;;;1.23;;
69779;SDS011;57052;55.602;38.096;2023-05-20T08:57:34;2.90;;;1.20;;
69779;SDS011;57052;55.602;38.096;2023-05-20T09:00:01;3.42;;;1.13;;
69779;SDS011;57052;55.602;38.096;2023-05-20T09:05:02;3.80;;;1.10;;
69779;SDS011;57052;55.602;38.096;2023-05-20T09:07:29;2.75;;;1.17;;
69779;SDS011;57052;55.602;38.096;2023-05-20T09:09:55;3.83;;;1.70;;
69779;SDS011;57052;55.602;38.096;2023-05-20T09:12:21;5.18;;;1.30;;
69779;SDS011;57052;55.602;38.096;2023-05-20T09:14:47;5.03;;;1.25;;
69779;SDS011;57052;55.602;38.096;2023-05-20T09:17:13;4.28;;;1.33;;
69779;SDS011;57052;55.602;38.096;2023-05-20T09:19:39;2.78;;;1.40;;
69779;SDS011;57052;55.602;38.096;2023-05-20T09:22:05;2.33;;;1.20;;
69779;SDS011;57052;55.602;38.096;2023-05-20T09:24:31;4.20;;;2.15;;
69779;SDS011;57052;55.602;38.096;2023-05-20T09:26:57;3.15;;;1.60;;
69779;SDS011;57052;55.602;38.096;2023-05-20T09:29:24;2.72;;;1.55;;
69779;SDS011;57052;55.602;38.096;2023-05-20T09:31:50;2.70;;;1.30;;
69779;SDS011;57052;55.602;38.096;2023-05-20T09:34:18;4.00;;;1.40;;
69779;SDS011;57052;55.602;38.096;2023-05-20T09:36:45;4.43;;;1.40;;
69779;SDS011;57052;55.602;38.096;2023-05-20T09:39:15;4.03;;;1.40;;
69779;SDS011;57052;55.602;38.096;2023-05-20T09:42:06;2.67;;;1.30;;
69779;SDS011;57052;55.602;38.096;2023-05-20T09:44:32;8.27;;;1.75;;
69779;SDS011;57052;55.602;38.096;2023-05-20T09:46:58;2.80;;;1.40;;
69779;SDS011;57052;55.602;38.096;2023-05-20T09:49:25;4.68;;;1.38;;
69779;SDS011;57052;55.602;38.096;2023-05-20T09:51:53;4.05;;;1.40;;
69779;SDS011;57052;55.602;38.096;2023-05-20T09:54:21;2.20;;;1.30;;
69779;SDS011;57052;55.602;38.096;2023-05-20T09:56:48;3.45;;;1.33;;
69779;SDS011;57052;55.602;38.096;2023-05-20T09:59:15;4.30;;;1.30;;
69779;SDS011;57052;55.602;38.096;2023-05-20T10:01:41;4.85;;;1.45;;
69779;SDS011;57052;55.602;38.096;2023-05-20T10:04:08;1.98;;;1.30;;
69779;SDS011;57052;55.602;38.096;2023-05-20T10:06:49;2.58;;;1.30;;
69779;SDS011;57052;55.602;38.096;2023-05-20T10:17:24;2.15;;;1.38;;
69779;SDS011;57052;55.602;38.096;2023-05-20T10:20:11;2.75;;;1.20;;
69779;SDS011;57052;55.602;38.096;2023-05-20T10:22:37;2.75;;;1.48;;
69779;SDS011;57052;55.602;38.096;2023-05-20T10:25:05;4.18;;;1.70;;
69779;SDS011;57052;55.602;38.096;2023-05-20T10:27:41;2.67;;;1.60;;
69779;SDS011;57052;55.602;38.096;2023-05-20T10:30:20;4.63;;;1.50;;
69779;SDS011;57052;55.602;38.096;2023-05-20T10:32:53;2.50;;;1.40;;
69779;SDS011;57052;55.602;38.096;2023-05-20T10:35:22;3.53;;;1.25;;
69779;SDS011;57052;55.602;38.096;2023-05-20T10:37:53;3.95;;;1.30;;
69779;SDS011;57052;55.602;38.096;2023-05-20T10:40:20;2.05;;;1.23;;
69779;SDS011;57052;55.602;38.096;2023-05-20T10:42:47;3.35;;;1.40;;
69779;SDS011;57052;55.602;38.096;2023-05-20T10:45:26;3.55;;;1.30;;
69779;SDS011;57052;55.602;38.096;2023-05-20T10:47:53;3.05;;;1.38;;
69779;SDS011;57052;55.602;38.096;2023-05-20T10:50:41;2.63;;;1.50;;
69779;SDS011;57052;55.602;38.096;2023-05-20T10:53:10;3.92;;;1.70;;
69779;SDS011;57052;55.602;38.096;2023-05-20T10:55:37;4.28;;;1.98;;
69779;SDS011;57052;55.602;38.096;2023-05-20T10:58:04;5.93;;;2.15;;
69779;SDS011;57052;55.602;38.096;2023-05-20T11:00:33;4.55;;;2.60;;
69779;SDS011;57052;55.602;38.096;2023-05-20T11:03:00;6.32;;;2.20;;
69779;SDS011;57052;55.602;38.096;2023-05-20T11:05:26;4.35;;;1.73;;
69779;SDS011;57052;55.602;38.096;2023-05-20T11:07:59;3.55;;;1.80;;
69779;SDS011;57052;55.602;38.096;2023-05-20T11:10:29;3.10;;;1.70;;
69779;SDS011;57052;55.602;38.096;2023-05-20T11:12:56;1.98;;;1.30;;
69779;SDS011;57052;55.602;38.096;2023-05-20T11:15:22;2.67;;;1.38;;
69779;SDS011;57052;55.602;38.096;2023-05-20T11:17:55;3.75;;;1.35;;
69779;SDS011;57052;55.602;38.096;2023-05-20T11:20:26;3.30;;;1.20;;
69779;SDS011;57052;55.602;38.096;2023-05-20T11:22:52;3.40;;;1.73;;
69779;SDS011;57052;55.602;38.096;2023-05-20T11:25:19;3.78;;;1.40;;
69779;SDS011;57052;55.602;38.096;2023-05-20T11:27:46;3.05;;;1.23;;
69779;SDS011;57052;55.602;38.096;2023-05-20T11:30:12;3.33;;;1.20;;
69779;SDS011;57052;55.602;38.096;2023-05-20T11:32:43;1.95;;;1.20;;
69779;SDS011;57052;55.602;38.096;2023-05-20T11:35:20;2.58;;;1.30;;
69779;SDS011;57052;55.602;38.096;2023-05-20T11:37:57;2.67;;;1.30;;
69779;SDS011;57052;55.602;38.096;2023-05-20T11:40:26;4.55;;;1.52;;
69779;SDS011;57052;55.602;38.096;2023-05-20T11:42:53;3.65;;;1.60;;
69779;SDS011;57052;55.602;38.096;2023-05-20T11:45:23;3.25;;;1.60;;
69779;SDS011;57052;55.602;38.096;2023-05-20T11:47:59;2.50;;;1.30;;
69779;SDS011;57052;55.602;38.096;2023-05-20T11:50:32;2.53;;;1.20;;
69779;SDS011;57052;55.602;38.096;2023-05-20T11:53:09;1.95;;;1.30;;
69779;SDS011;57052;55.602;38.096;2023-05-20T11:55:45;5.20;;;1.50;;
69779;SDS011;57052;55.602;38.096;2023-05-20T11:58:17;3.15;;;1.60;;
69779;SDS011;57052;55.602;38.096;2023-05-20T12:00:47;4.35;;;1.60;;
69779;SDS011;57052;55.602;38.096;2023-05-20T12:03:13;4.82;;;1.70;;
69779;SDS011;57052;55.602;38.096;2023-05-20T12:05:39;5.45;;;1.70;;
69779;SDS011;57052;55.602;38.096;2023-05-20T12:08:05;3.95;;;1.48;;
69779;SDS011;57052;55.602;38.096;2023-05-20T12:10:31;4.07;;;1.50;;
69779;SDS011;57052;55.602;38.096;2023-05-20T12:12:57;4.03;;;1.30;;
69779;SDS011;57052;55.602;38.096;2023-05-20T12:15:23;2.30;;;1.33;;
69779;SDS011;57052;55.602;38.096;2023-05-20T12:17:50;2.88;;;1.40;;
69779;SDS011;57052;55.602;38.096;2023-05-20T12:20:17;2.25;;;1.30;;
69779;SDS011;57052;55.602;38.096;2023-05-20T12:22:45;2.75;;;1.40;;
69779;SDS011;57052;55.602;38.096;2023-05-20T12:25:11;4.50;;;1.40;;
69779;SDS011;57052;55.602;38.096;2023-05-20T12:27:40;3.75;;;1.45;;
69779;SDS011;57052;55.602;38.096;2023-05-20T12:30:07;3.13;;;1.30;;
69779;SDS011;57052;55.602;38.096;2023-05-20T12:32:34;5.68;;;1.40;;
69779;SDS011;57052;55.602;38.096;2023-05-20T12:35:03;4.68;;;1.50;;
69779;SDS011;57052;55.602;38.096;2023-05-20T12:37:31;4.20;;;1.48;;
69779;SDS011;57052;55.602;38.096;2023-05-20T12:39:57;2.80;;;1.50;;
69779;SDS011;57052;55.602;38.096;2023-05-20T12:42:23;3.33;;;1.63;;
69779;SDS011;57052;55.602;38.096;2023-05-20T12:44:49;4.70;;;1.73;;
69779;SDS011;57052;55.602;38.096;2023-05-20T12:47:15;3.20;;;1.40;;
69779;SDS011;57052;55.602;38.096;2023-05-20T12:49:40;5.85;;;1.63;;
69779;SDS011;57052;55.602;38.096;2023-05-20T12:52:06;2.70;;;1.52;;
69779;SDS011;57052;55.602;38.096;2023-05-20T12:54:32;2.50;;;1.70;;
69779;SDS011;57052;55.602;38.096;2023-05-20T12:56:58;3.00;;;1.50;;
69779;SDS011;57052;55.602;38.096;2023-05-20T12:59:24;4.03;;;1.73;;
69779;SDS011;57052;55.602;38.096;2023-05-20T13:01:50;6.45;;;1.77;;
69779;SDS011;57052;55.602;38.096;2023-05-20T13:04:16;3.97;;;1.40;;
69779;SDS011;57052;55.602;38.096;2023-05-20T13:06:42;2.92;;;1.70;;
69779;SDS011;57052;55.602;38.096;2023-05-20T13:09:07;4.32;;;1.70;;
69779;SDS011;57052;55.602;38.096;2023-05-20T13:11:33;4.57;;;1.88;;
69779;SDS011;57052;55.602;38.096;2023-05-20T13:13:59;4.22;;;1.83;;
69779;SDS011;57052;55.602;38.096;2023-05-20T13:16:25;5.88;;;1.90;;
69779;SDS011;57052;55.602;38.096;2023-05-20T13:18:51;6.72;;;2.05;;
69779;SDS011;57052;55.602;38.096;2023-05-20T13:21:16;5.68;;;2.40;;
69779;SDS011;57052;55.602;38.096;2023-05-20T13:23:42;7.63;;;2.33;;
69779;SDS011;57052;55.602;38.096;2023-05-20T13:26:08;3.75;;;1.75;;
69779;SDS011;57052;55.602;38.096;2023-05-20T13:28:34;3.28;;;1.40;;
69779;SDS011;57052;55.602;38.096;2023-05-20T13:31:01;3.60;;;1.40;;
69779;SDS011;57052;55.602;38.096;2023-05-20T13:33:27;5.15;;;1.60;;
69779;SDS011;57052;55.602;38.096;2023-05-20T13:35:53;4.88;;;1.83;;
69779;SDS011;57052;55.602;38.096;2023-05-20T13:38:19;3.47;;;1.67;;
69779;SDS011;57052;55.602;38.096;2023-05-20T13:40:44;3.40;;;1.80;;
69779;SDS011;57052;55.602;38.096;2023-05-20T13:43:10;7.85;;;2.00;;
69779;SDS011;57052;55.602;38.096;2023-05-20T13:45:36;5.72;;;2.05;;
69779;SDS011;57052;55.602;38.096;2023-05-20T13:48:01;3.42;;;1.88;;
69779;SDS011;57052;55.602;38.096;2023-05-20T13:50:27;5.80;;;2.28;;
69779;SDS011;57052;55.602;38.096;2023-05-20T13:52:53;4.88;;;1.88;;
69779;SDS011;57052;55.602;38.096;2023-05-20T13:55:19;2.78;;;1.73;;
69779;SDS011;57052;55.602;38.096;2023-05-20T13:57:45;5.25;;;1.90;;
69779;SDS011;57052;55.602;38.096;2023-05-20T14:00:11;4.10;;;1.60;;
69779;SDS011;57052;55.602;38.096;2023-05-20T14:02:37;7.20;;;1.90;;
69779;SDS011;57052;55.602;38.096;2023-05-20T14:05:04;3.20;;;1.70;;
69779;SDS011;57052;55.602;38.096;2023-05-20T14:07:31;3.38;;;1.70;;
69779;SDS011;57052;55.602;38.096;2023-05-20T14:09:57;3.08;;;1.70;;
69779;SDS011;57052;55.602;38.096;2023-05-20T14:12:22;3.83;;;1.88;;
69779;SDS011;57052;55.602;38.096;2023-05-20T14:14:48;2.80;;;1.63;;
69779;SDS011;57052;55.602;38.096;2023-05-20T14:17:14;4.82;;;1.73;;
69779;SDS011;57052;55.602;38.096;2023-05-20T14:19:40;4.50;;;1.80;;
69779;SDS011;57052;55.602;38.096;2023-05-20T14:22:06;11.23;;;2.03;;
69779;SDS011;57052;55.602;38.096;2023-05-20T14:24:31;4.55;;;2.08;;
69779;SDS011;57052;55.602;38.096;2023-05-20T14:26:57;5.03;;;1.90;;
69779;SDS011;57052;55.602;38.096;2023-05-20T14:29:23;5.22;;;2.10;;
69779;SDS011;57052;55.602;38.096;2023-05-20T14:31:49;6.10;;;2.40;;
69779;SDS011;57052;55.602;38.096;2023-05-20T14:34:15;4.75;;;2.50;;
69779;SDS011;57052;55.602;38.096;2023-05-20T14:36:40;4.35;;;2.55;;
69779;SDS011;57052;55.602;38.096;2023-05-20T14:39:06;4.55;;;2.35;;
69779;SDS011;57052;55.602;38.096;2023-05-20T14:41:32;5.78;;;2.40;;
69779;SDS011;57052;55.602;38.096;2023-05-20T14:43:58;5.78;;;2.20;;
69779;SDS011;57052;55.602;38.096;2023-05-20T14:46:24;3.83;;;2.30;;